Airfield :
LOGIN :

Register | Disclaimer

   EN    FR    IT 

 










Legend :    VFR   Marginal VFR   IFR   Intensive IFR   Very Intensive IFR
Visi :
Ceiling :
>= 8 km
>= 3000ft
5 to 8 km
1000 to 3000 ft
1500m to 5 km
500 to 1000 ft
800 to 1500m
200 to 500 ft
< 800m
< 200 ft
Symbols :   Thunderstorms  Fog  Heavy snow  Heavy precipitations  Wind > 20 kt
SIGMETs :     Misc.  Thunderstorms  Icing  Turbulence  Mountain Waves  Volcanic Ashes







- Airport Elevation : 424 ft
- IATA code : QGY


LHPR - Györ Per

CURRENT METAR :
  • 211645Z AUTO 31010KT 9999 -RA OVC045 12/10 Q1017 RMK BLU

EXPIRED METARs :
  • 211615Z AUTO 33013KT 9999 -RA OVC044 12/10 Q1017 RMK BLU
  • 211545Z 33017KT 290V350 9999 -RA BKN040 OVC060 12/10 Q1017 RMK BLU
  • 211515Z 32015KT 290V350 9999 -RA FEW020 SCT033 OVC040 12/10 Q1017 RMK BLU
  • 211445Z 32013KT 9999 -RA SCT020 OVC040 12/11 Q1017 RMK BLU
  • 211415Z 31014KT 280V350 9999 -RA BKN020 OVC040 12/11 Q1017 RMK WHT

TAF TAF LHPR
Valid from the 21 at 15:00 until the 22 at 00:00 UTC


211415Z 2115/2124 31016G26KT 9999 -RA BKN040 OVC060
TEMPO 2115/2124 5000 RA BKN015 OVC025
No reported NOTAMs for that airfield.
1 SIGMET reported for the Budapest FIR (LHCC) :
 
Severe icing
LHCC SIGMET 06 VALID 211715/212115 LHBP
LHCC BUDAPEST FIR SEV ICE FCST BTN E01700 AND E02000 7000FT/FL110 STNR WKN=



MET'MAP, your aeronautical weather chart ! - Copyright ORBIFLY December 2007 - Disclaimer

ORBIFLY MET'MAP TEAM :

Programming & Development : Alexandra Zaïnal
Concept & Development : Baudouin d'Aumeries
Co-Development & Prog : Marc-Olivier Méhu
Technical & hardware support : Manuel Goepfert

Contact : metmap@orbifly.com




SOURCES & CREDITS :

   NOAA